sensor_id;sensor_type;location;lat;lon;timestamp;P1;durP1;ratioP1;P2;durP2;ratioP2
12196;SDS011;6161;43.014;25.840;2022-12-18T00:01:27;3.57;;;3.00;;
12196;SDS011;6161;43.014;25.840;2022-12-18T00:03:53;6.17;;;3.27;;
12196;SDS011;6161;43.014;25.840;2022-12-18T00:06:19;3.23;;;2.80;;
12196;SDS011;6161;43.014;25.840;2022-12-18T00:08:44;3.60;;;3.13;;
12196;SDS011;6161;43.014;25.840;2022-12-18T00:11:12;3.77;;;2.70;;
12196;SDS011;6161;43.014;25.840;2022-12-18T00:13:37;3.23;;;2.70;;
12196;SDS011;6161;43.014;25.840;2022-12-18T00:16:03;2.70;;;2.47;;
12196;SDS011;6161;43.014;25.840;2022-12-18T00:18:29;4.33;;;3.10;;
12196;SDS011;6161;43.014;25.840;2022-12-18T00:20:57;3.37;;;2.60;;
12196;SDS011;6161;43.014;25.840;2022-12-18T00:23:23;3.10;;;2.73;;
12196;SDS011;6161;43.014;25.840;2022-12-18T00:25:48;4.13;;;2.93;;
12196;SDS011;6161;43.014;25.840;2022-12-18T00:28:13;3.13;;;2.77;;
12196;SDS011;6161;43.014;25.840;2022-12-18T00:30:39;3.33;;;2.40;;
12196;SDS011;6161;43.014;25.840;2022-12-18T00:33:04;3.50;;;2.87;;
12196;SDS011;6161;43.014;25.840;2022-12-18T00:35:29;2.60;;;2.30;;
12196;SDS011;6161;43.014;25.840;2022-12-18T00:37:56;2.67;;;2.47;;
12196;SDS011;6161;43.014;25.840;2022-12-18T00:40:21;2.80;;;2.30;;
12196;SDS011;6161;43.014;25.840;2022-12-18T00:42:47;2.83;;;2.53;;
12196;SDS011;6161;43.014;25.840;2022-12-18T00:45:28;3.30;;;2.50;;
12196;SDS011;6161;43.014;25.840;2022-12-18T00:47:54;2.70;;;2.50;;
12196;SDS011;6161;43.014;25.840;2022-12-18T00:50:19;3.47;;;2.83;;
12196;SDS011;6161;43.014;25.840;2022-12-18T00:52:45;2.97;;;2.50;;
12196;SDS011;6161;43.014;25.840;2022-12-18T00:55:10;3.60;;;2.83;;
12196;SDS011;6161;43.014;25.840;2022-12-18T00:57:36;4.07;;;2.50;;
12196;SDS011;6161;43.014;25.840;2022-12-18T01:00:03;4.77;;;2.80;;
12196;SDS011;6161;43.014;25.840;2022-12-18T01:02:28;2.23;;;2.03;;
12196;SDS011;6161;43.014;25.840;2022-12-18T01:04:54;2.83;;;2.17;;
12196;SDS011;6161;43.014;25.840;2022-12-18T01:07:19;2.63;;;2.43;;
12196;SDS011;6161;43.014;25.840;2022-12-18T01:09:44;9.33;;;2.83;;
12196;SDS011;6161;43.014;25.840;2022-12-18T01:12:10;3.73;;;2.20;;
12196;SDS011;6161;43.014;25.840;2022-12-18T01:14:35;3.07;;;2.50;;
12196;SDS011;6161;43.014;25.840;2022-12-18T01:17:01;3.63;;;2.67;;
12196;SDS011;6161;43.014;25.840;2022-12-18T01:19:28;2.80;;;2.50;;
12196;SDS011;6161;43.014;25.840;2022-12-18T01:21:53;2.90;;;2.57;;
12196;SDS011;6161;43.014;25.840;2022-12-18T01:24:19;2.77;;;2.47;;
12196;SDS011;6161;43.014;25.840;2022-12-18T01:26:44;3.33;;;2.93;;
12196;SDS011;6161;43.014;25.840;2022-12-18T01:29:10;3.13;;;2.60;;
12196;SDS011;6161;43.014;25.840;2022-12-18T01:31:35;3.67;;;2.83;;
12196;SDS011;6161;43.014;25.840;2022-12-18T01:34:01;2.90;;;2.63;;
12196;SDS011;6161;43.014;25.840;2022-12-18T01:36:27;2.50;;;2.27;;
12196;SDS011;6161;43.014;25.840;2022-12-18T01:38:53;3.13;;;2.40;;
12196;SDS011;6161;43.014;25.840;2022-12-18T01:41:20;2.20;;;1.93;;
12196;SDS011;6161;43.014;25.840;2022-12-18T01:43:53;3.10;;;2.40;;
12196;SDS011;6161;43.014;25.840;2022-12-18T01:46:20;2.67;;;2.47;;
12196;SDS011;6161;43.014;25.840;2022-12-18T01:48:46;3.17;;;2.63;;
12196;SDS011;6161;43.014;25.840;2022-12-18T01:51:12;2.87;;;2.30;;
12196;SDS011;6161;43.014;25.840;2022-12-18T01:53:38;2.70;;;2.50;;
12196;SDS011;6161;43.014;25.840;2022-12-18T01:56:04;2.50;;;2.20;;
12196;SDS011;6161;43.014;25.840;2022-12-18T01:59:12;2.80;;;2.47;;
12196;SDS011;6161;43.014;25.840;2022-12-18T02:01:19;2.57;;;2.37;;
12196;SDS011;6161;43.014;25.840;2022-12-18T02:03:45;2.37;;;2.10;;
12196;SDS011;6161;43.014;25.840;2022-12-18T02:06:15;2.40;;;2.20;;
12196;SDS011;6161;43.014;25.840;2022-12-18T02:11:09;2.70;;;2.37;;
12196;SDS011;6161;43.014;25.840;2022-12-18T02:13:50;3.30;;;2.43;;
12196;SDS011;6161;43.014;25.840;2022-12-18T02:16:25;2.50;;;2.30;;
12196;SDS011;6161;43.014;25.840;2022-12-18T02:18:54;4.13;;;2.43;;
12196;SDS011;6161;43.014;25.840;2022-12-18T02:23:56;2.77;;;1.97;;
12196;SDS011;6161;43.014;25.840;2022-12-18T02:26:27;2.40;;;2.10;;
12196;SDS011;6161;43.014;25.840;2022-12-18T02:28:56;3.17;;;2.53;;
12196;SDS011;6161;43.014;25.840;2022-12-18T02:31:25;2.50;;;2.20;;
12196;SDS011;6161;43.014;25.840;2022-12-18T02:33:52;2.37;;;2.17;;
12196;SDS011;6161;43.014;25.840;2022-12-18T02:36:18;4.63;;;2.33;;
12196;SDS011;6161;43.014;25.840;2022-12-18T02:38:45;4.13;;;2.53;;
12196;SDS011;6161;43.014;25.840;2022-12-18T02:41:11;3.60;;;2.37;;
12196;SDS011;6161;43.014;25.840;2022-12-18T02:43:38;2.37;;;1.97;;
12196;SDS011;6161;43.014;25.840;2022-12-18T02:46:22;3.17;;;2.43;;
12196;SDS011;6161;43.014;25.840;2022-12-18T02:48:49;2.30;;;1.93;;
12196;SDS011;6161;43.014;25.840;2022-12-18T02:53:43;2.57;;;2.10;;
12196;SDS011;6161;43.014;25.840;2022-12-18T03:01:07;2.80;;;2.20;;
12196;SDS011;6161;43.014;25.840;2022-12-18T03:03:45;3.27;;;2.30;;
12196;SDS011;6161;43.014;25.840;2022-12-18T03:08:44;2.10;;;1.90;;
12196;SDS011;6161;43.014;25.840;2022-12-18T03:11:11;3.17;;;2.40;;
12196;SDS011;6161;43.014;25.840;2022-12-18T03:13:39;1.90;;;1.80;;
12196;SDS011;6161;43.014;25.840;2022-12-18T03:16:07;3.30;;;2.57;;
12196;SDS011;6161;43.014;25.840;2022-12-18T03:18:35;3.27;;;2.20;;
12196;SDS011;6161;43.014;25.840;2022-12-18T03:21:04;2.97;;;2.67;;
12196;SDS011;6161;43.014;25.840;2022-12-18T03:23:32;2.23;;;2.03;;
12196;SDS011;6161;43.014;25.840;2022-12-18T03:26:00;3.63;;;2.80;;
12196;SDS011;6161;43.014;25.840;2022-12-18T03:28:26;3.30;;;2.87;;
12196;SDS011;6161;43.014;25.840;2022-12-18T03:30:55;3.13;;;2.57;;
12196;SDS011;6161;43.014;25.840;2022-12-18T03:33:34;3.73;;;2.40;;
12196;SDS011;6161;43.014;25.840;2022-12-18T03:36:02;4.50;;;2.97;;
12196;SDS011;6161;43.014;25.840;2022-12-18T03:38:28;4.53;;;3.30;;
12196;SDS011;6161;43.014;25.840;2022-12-18T03:45:49;4.37;;;3.00;;
12196;SDS011;6161;43.014;25.840;2022-12-18T03:48:28;4.40;;;3.03;;
12196;SDS011;6161;43.014;25.840;2022-12-18T03:50:59;4.47;;;2.97;;
12196;SDS011;6161;43.014;25.840;2022-12-18T03:53:28;5.47;;;3.27;;
12196;SDS011;6161;43.014;25.840;2022-12-18T03:55:58;4.60;;;3.60;;
12196;SDS011;6161;43.014;25.840;2022-12-18T03:58:24;3.53;;;2.90;;
12196;SDS011;6161;43.014;25.840;2022-12-18T04:00:51;3.80;;;3.17;;
12196;SDS011;6161;43.014;25.840;2022-12-18T04:03:17;4.30;;;3.60;;
12196;SDS011;6161;43.014;25.840;2022-12-18T04:05:43;3.73;;;3.33;;
12196;SDS011;6161;43.014;25.840;2022-12-18T04:08:10;3.97;;;2.87;;
12196;SDS011;6161;43.014;25.840;2022-12-18T04:10:36;5.93;;;3.37;;
12196;SDS011;6161;43.014;25.840;2022-12-18T04:13:01;5.63;;;3.50;;
12196;SDS011;6161;43.014;25.840;2022-12-18T04:15:27;4.77;;;3.70;;
12196;SDS011;6161;43.014;25.840;2022-12-18T04:17:52;5.47;;;3.40;;
12196;SDS011;6161;43.014;25.840;2022-12-18T04:20:17;4.47;;;3.23;;
12196;SDS011;6161;43.014;25.840;2022-12-18T04:22:43;3.37;;;3.07;;
12196;SDS011;6161;43.014;25.840;2022-12-18T04:25:08;3.63;;;3.17;;
12196;SDS011;6161;43.014;25.840;2022-12-18T04:27:36;4.97;;;3.57;;
12196;SDS011;6161;43.014;25.840;2022-12-18T04:30:02;5.13;;;3.70;;
12196;SDS011;6161;43.014;25.840;2022-12-18T04:32:27;6.07;;;3.67;;
12196;SDS011;6161;43.014;25.840;2022-12-18T04:34:53;6.63;;;3.77;;
12196;SDS011;6161;43.014;25.840;2022-12-18T04:37:18;4.90;;;3.30;;
12196;SDS011;6161;43.014;25.840;2022-12-18T04:39:43;5.37;;;3.60;;
12196;SDS011;6161;43.014;25.840;2022-12-18T04:42:09;4.83;;;3.27;;
12196;SDS011;6161;43.014;25.840;2022-12-18T04:44:34;6.03;;;4.60;;
12196;SDS011;6161;43.014;25.840;2022-12-18T04:46:59;8.07;;;5.37;;
12196;SDS011;6161;43.014;25.840;2022-12-18T04:49:25;5.27;;;3.80;;
12196;SDS011;6161;43.014;25.840;2022-12-18T04:51:50;4.67;;;3.70;;
12196;SDS011;6161;43.014;25.840;2022-12-18T04:54:16;5.43;;;3.60;;
12196;SDS011;6161;43.014;25.840;2022-12-18T04:56:41;4.27;;;3.37;;
12196;SDS011;6161;43.014;25.840;2022-12-18T04:59:07;4.10;;;3.63;;
12196;SDS011;6161;43.014;25.840;2022-12-18T05:01:32;6.43;;;3.70;;
12196;SDS011;6161;43.014;25.840;2022-12-18T05:03:57;4.53;;;3.60;;
12196;SDS011;6161;43.014;25.840;2022-12-18T05:06:23;5.13;;;3.27;;
12196;SDS011;6161;43.014;25.840;2022-12-18T05:08:48;6.07;;;4.13;;
12196;SDS011;6161;43.014;25.840;2022-12-18T05:11:14;6.13;;;4.00;;
12196;SDS011;6161;43.014;25.840;2022-12-18T05:13:43;5.17;;;3.87;;
12196;SDS011;6161;43.014;25.840;2022-12-18T05:16:09;6.17;;;3.30;;
12196;SDS011;6161;43.014;25.840;2022-12-18T05:18:35;4.40;;;3.27;;
12196;SDS011;6161;43.014;25.840;2022-12-18T05:21:00;6.03;;;3.70;;
12196;SDS011;6161;43.014;25.840;2022-12-18T05:23:26;4.00;;;3.03;;
12196;SDS011;6161;43.014;25.840;2022-12-18T05:25:52;4.27;;;3.53;;
12196;SDS011;6161;43.014;25.840;2022-12-18T05:28:17;6.67;;;4.17;;
12196;SDS011;6161;43.014;25.840;2022-12-18T05:30:46;6.53;;;4.10;;
12196;SDS011;6161;43.014;25.840;2022-12-18T05:33:12;6.00;;;4.13;;
12196;SDS011;6161;43.014;25.840;2022-12-18T05:35:37;6.17;;;3.87;;
12196;SDS011;6161;43.014;25.840;2022-12-18T05:38:03;5.07;;;3.80;;
12196;SDS011;6161;43.014;25.840;2022-12-18T05:40:28;4.10;;;3.50;;
12196;SDS011;6161;43.014;25.840;2022-12-18T05:42:53;4.33;;;3.50;;
12196;SDS011;6161;43.014;25.840;2022-12-18T05:45:18;4.87;;;3.40;;
12196;SDS011;6161;43.014;25.840;2022-12-18T05:47:45;5.13;;;3.63;;
12196;SDS011;6161;43.014;25.840;2022-12-18T05:50:10;6.53;;;4.03;;
12196;SDS011;6161;43.014;25.840;2022-12-18T05:52:35;6.73;;;4.47;;
12196;SDS011;6161;43.014;25.840;2022-12-18T05:55:01;5.07;;;3.97;;
12196;SDS011;6161;43.014;25.840;2022-12-18T05:57:26;6.17;;;4.50;;
12196;SDS011;6161;43.014;25.840;2022-12-18T05:59:51;7.43;;;4.50;;
12196;SDS011;6161;43.014;25.840;2022-12-18T06:02:17;5.47;;;4.40;;
12196;SDS011;6161;43.014;25.840;2022-12-18T06:04:42;5.57;;;4.70;;
12196;SDS011;6161;43.014;25.840;2022-12-18T06:07:07;5.07;;;3.50;;
12196;SDS011;6161;43.014;25.840;2022-12-18T06:09:33;5.43;;;3.73;;
12196;SDS011;6161;43.014;25.840;2022-12-18T06:11:58;5.23;;;3.90;;
12196;SDS011;6161;43.014;25.840;2022-12-18T06:14:23;5.57;;;4.10;;
12196;SDS011;6161;43.014;25.840;2022-12-18T06:16:50;4.03;;;3.47;;
12196;SDS011;6161;43.014;25.840;2022-12-18T06:19:15;6.13;;;3.97;;
12196;SDS011;6161;43.014;25.840;2022-12-18T06:21:41;5.80;;;4.03;;
12196;SDS011;6161;43.014;25.840;2022-12-18T06:24:07;6.30;;;4.20;;
12196;SDS011;6161;43.014;25.840;2022-12-18T06:26:32;6.30;;;4.00;;
12196;SDS011;6161;43.014;25.840;2022-12-18T06:28:58;5.07;;;3.40;;
12196;SDS011;6161;43.014;25.840;2022-12-18T06:31:23;5.73;;;3.90;;
12196;SDS011;6161;43.014;25.840;2022-12-18T06:33:49;4.57;;;3.70;;
12196;SDS011;6161;43.014;25.840;2022-12-18T06:36:14;4.43;;;3.30;;
12196;SDS011;6161;43.014;25.840;2022-12-18T06:38:41;4.83;;;3.80;;
12196;SDS011;6161;43.014;25.840;2022-12-18T06:41:16;5.17;;;4.23;;
12196;SDS011;6161;43.014;25.840;2022-12-18T06:43:42;5.73;;;4.30;;
12196;SDS011;6161;43.014;25.840;2022-12-18T06:46:09;4.50;;;3.30;;
12196;SDS011;6161;43.014;25.840;2022-12-18T06:48:34;4.77;;;3.60;;
12196;SDS011;6161;43.014;25.840;2022-12-18T06:50:59;7.30;;;4.40;;
12196;SDS011;6161;43.014;25.840;2022-12-18T06:53:25;4.97;;;4.30;;
12196;SDS011;6161;43.014;25.840;2022-12-18T06:55:50;6.40;;;4.20;;
12196;SDS011;6161;43.014;25.840;2022-12-18T06:58:16;5.00;;;3.77;;
12196;SDS011;6161;43.014;25.840;2022-12-18T07:00:41;5.27;;;4.00;;
12196;SDS011;6161;43.014;25.840;2022-12-18T07:03:06;6.17;;;3.90;;
12196;SDS011;6161;43.014;25.840;2022-12-18T07:05:32;4.73;;;3.40;;
12196;SDS011;6161;43.014;25.840;2022-12-18T07:07:57;9.20;;;3.70;;
12196;SDS011;6161;43.014;25.840;2022-12-18T07:10:23;8.17;;;4.20;;
12196;SDS011;6161;43.014;25.840;2022-12-18T07:12:48;6.37;;;4.10;;
12196;SDS011;6161;43.014;25.840;2022-12-18T07:15:13;5.00;;;3.73;;
12196;SDS011;6161;43.014;25.840;2022-12-18T07:17:39;5.80;;;3.80;;
12196;SDS011;6161;43.014;25.840;2022-12-18T07:20:04;5.53;;;3.67;;
12196;SDS011;6161;43.014;25.840;2022-12-18T07:22:30;6.57;;;3.90;;
12196;SDS011;6161;43.014;25.840;2022-12-18T07:24:55;5.43;;;3.63;;
12196;SDS011;6161;43.014;25.840;2022-12-18T07:27:21;5.83;;;4.47;;
12196;SDS011;6161;43.014;25.840;2022-12-18T07:29:46;5.77;;;4.03;;
12196;SDS011;6161;43.014;25.840;2022-12-18T07:32:11;8.03;;;4.27;;
12196;SDS011;6161;43.014;25.840;2022-12-18T07:34:37;4.20;;;3.60;;
12196;SDS011;6161;43.014;25.840;2022-12-18T07:37:02;6.33;;;3.87;;
12196;SDS011;6161;43.014;25.840;2022-12-18T07:39:27;5.47;;;3.93;;
12196;SDS011;6161;43.014;25.840;2022-12-18T07:41:53;8.17;;;3.87;;
12196;SDS011;6161;43.014;25.840;2022-12-18T07:44:36;5.03;;;3.60;;
12196;SDS011;6161;43.014;25.840;2022-12-18T07:47:02;4.87;;;4.17;;
12196;SDS011;6161;43.014;25.840;2022-12-18T07:49:27;6.40;;;4.13;;
12196;SDS011;6161;43.014;25.840;2022-12-18T07:51:54;5.73;;;4.23;;
12196;SDS011;6161;43.014;25.840;2022-12-18T07:54:19;8.80;;;5.00;;
12196;SDS011;6161;43.014;25.840;2022-12-18T07:56:45;6.20;;;4.70;;
12196;SDS011;6161;43.014;25.840;2022-12-18T07:59:10;7.00;;;4.77;;
12196;SDS011;6161;43.014;25.840;2022-12-18T08:01:35;10.07;;;3.93;;
12196;SDS011;6161;43.014;25.840;2022-12-18T08:04:00;6.40;;;4.37;;
12196;SDS011;6161;43.014;25.840;2022-12-18T08:06:26;6.03;;;3.90;;
12196;SDS011;6161;43.014;25.840;2022-12-18T08:08:52;6.43;;;4.10;;
12196;SDS011;6161;43.014;25.840;2022-12-18T08:11:18;5.63;;;4.03;;
12196;SDS011;6161;43.014;25.840;2022-12-18T08:13:43;5.73;;;4.30;;
12196;SDS011;6161;43.014;25.840;2022-12-18T08:16:08;6.20;;;4.17;;
12196;SDS011;6161;43.014;25.840;2022-12-18T08:18:34;4.47;;;3.67;;
12196;SDS011;6161;43.014;25.840;2022-12-18T08:21:13;6.57;;;4.00;;
12196;SDS011;6161;43.014;25.840;2022-12-18T08:23:40;6.33;;;4.30;;
12196;SDS011;6161;43.014;25.840;2022-12-18T08:26:05;6.77;;;4.50;;
12196;SDS011;6161;43.014;25.840;2022-12-18T08:28:30;5.23;;;4.33;;
12196;SDS011;6161;43.014;25.840;2022-12-18T08:30:56;7.07;;;4.03;;
12196;SDS011;6161;43.014;25.840;2022-12-18T08:33:21;5.10;;;3.80;;
12196;SDS011;6161;43.014;25.840;2022-12-18T08:35:46;5.63;;;3.90;;
12196;SDS011;6161;43.014;25.840;2022-12-18T08:38:11;5.23;;;3.87;;
12196;SDS011;6161;43.014;25.840;2022-12-18T08:40:37;5.77;;;3.90;;
12196;SDS011;6161;43.014;25.840;2022-12-18T08:43:02;7.43;;;4.37;;
12196;SDS011;6161;43.014;25.840;2022-12-18T08:45:46;6.37;;;4.07;;
12196;SDS011;6161;43.014;25.840;2022-12-18T08:48:11;6.00;;;4.20;;
12196;SDS011;6161;43.014;25.840;2022-12-18T08:50:36;6.30;;;4.10;;
12196;SDS011;6161;43.014;25.840;2022-12-18T08:53:02;6.03;;;4.47;;
12196;SDS011;6161;43.014;25.840;2022-12-18T08:55:27;6.87;;;4.80;;
12196;SDS011;6161;43.014;25.840;2022-12-18T08:57:52;5.27;;;3.87;;
12196;SDS011;6161;43.014;25.840;2022-12-18T09:00:18;6.33;;;4.67;;
12196;SDS011;6161;43.014;25.840;2022-12-18T09:02:43;6.37;;;4.20;;
12196;SDS011;6161;43.014;25.840;2022-12-18T09:05:08;7.07;;;4.87;;
12196;SDS011;6161;43.014;25.840;2022-12-18T09:07:34;6.40;;;4.57;;
12196;SDS011;6161;43.014;25.840;2022-12-18T09:10:00;6.10;;;4.57;;
12196;SDS011;6161;43.014;25.840;2022-12-18T09:12:25;6.83;;;5.03;;
12196;SDS011;6161;43.014;25.840;2022-12-18T09:14:50;6.60;;;4.57;;
12196;SDS011;6161;43.014;25.840;2022-12-18T09:17:15;7.33;;;5.40;;
12196;SDS011;6161;43.014;25.840;2022-12-18T09:19:41;7.53;;;4.67;;
12196;SDS011;6161;43.014;25.840;2022-12-18T09:22:06;9.40;;;5.43;;
12196;SDS011;6161;43.014;25.840;2022-12-18T09:24:31;6.27;;;4.77;;
12196;SDS011;6161;43.014;25.840;2022-12-18T09:26:57;7.77;;;4.53;;
12196;SDS011;6161;43.014;25.840;2022-12-18T09:29:22;8.90;;;5.53;;
12196;SDS011;6161;43.014;25.840;2022-12-18T09:31:47;6.30;;;4.50;;
12196;SDS011;6161;43.014;25.840;2022-12-18T09:34:14;6.40;;;4.80;;
12196;SDS011;6161;43.014;25.840;2022-12-18T09:36:39;6.20;;;4.60;;
12196;SDS011;6161;43.014;25.840;2022-12-18T09:39:05;6.20;;;4.70;;
12196;SDS011;6161;43.014;25.840;2022-12-18T09:41:33;6.97;;;4.77;;
12196;SDS011;6161;43.014;25.840;2022-12-18T09:44:10;7.80;;;4.93;;
12196;SDS011;6161;43.014;25.840;2022-12-18T09:46:38;5.73;;;4.20;;
12196;SDS011;6161;43.014;25.840;2022-12-18T09:49:07;7.03;;;4.77;;
12196;SDS011;6161;43.014;25.840;2022-12-18T09:51:39;6.30;;;4.77;;
12196;SDS011;6161;43.014;25.840;2022-12-18T09:54:07;7.40;;;4.57;;
12196;SDS011;6161;43.014;25.840;2022-12-18T09:56:37;6.60;;;4.03;;
12196;SDS011;6161;43.014;25.840;2022-12-18T09:59:04;8.17;;;4.77;;
12196;SDS011;6161;43.014;25.840;2022-12-18T10:01:30;8.17;;;5.07;;
12196;SDS011;6161;43.014;25.840;2022-12-18T10:03:56;7.43;;;4.97;;
12196;SDS011;6161;43.014;25.840;2022-12-18T10:11:28;7.40;;;4.40;;
12196;SDS011;6161;43.014;25.840;2022-12-18T10:13:56;7.87;;;5.13;;
12196;SDS011;6161;43.014;25.840;2022-12-18T10:16:28;5.57;;;4.30;;
12196;SDS011;6161;43.014;25.840;2022-12-18T10:21:45;8.20;;;5.07;;
12196;SDS011;6161;43.014;25.840;2022-12-18T10:26:50;8.00;;;4.63;;
12196;SDS011;6161;43.014;25.840;2022-12-18T10:29:17;14.60;;;5.23;;
12196;SDS011;6161;43.014;25.840;2022-12-18T10:31:42;10.23;;;5.93;;
12196;SDS011;6161;43.014;25.840;2022-12-18T10:34:13;6.77;;;5.00;;
12196;SDS011;6161;43.014;25.840;2022-12-18T10:36:39;8.37;;;4.87;;
12196;SDS011;6161;43.014;25.840;2022-12-18T10:39:24;7.50;;;4.73;;
12196;SDS011;6161;43.014;25.840;2022-12-18T10:41:51;7.20;;;5.00;;
12196;SDS011;6161;43.014;25.840;2022-12-18T10:44:20;8.77;;;5.40;;
12196;SDS011;6161;43.014;25.840;2022-12-18T10:46:46;7.77;;;5.30;;
12196;SDS011;6161;43.014;25.840;2022-12-18T10:49:19;8.13;;;5.70;;
12196;SDS011;6161;43.014;25.840;2022-12-18T10:51:46;8.53;;;4.93;;
12196;SDS011;6161;43.014;25.840;2022-12-18T10:54:19;6.47;;;4.33;;
12196;SDS011;6161;43.014;25.840;2022-12-18T10:56:46;6.17;;;4.00;;
12196;SDS011;6161;43.014;25.840;2022-12-18T10:59:15;7.10;;;5.03;;
12196;SDS011;6161;43.014;25.840;2022-12-18T11:04:13;5.77;;;4.60;;
12196;SDS011;6161;43.014;25.840;2022-12-18T11:06:57;7.17;;;4.87;;
12196;SDS011;6161;43.014;25.840;2022-12-18T11:09:24;6.13;;;4.33;;
12196;SDS011;6161;43.014;25.840;2022-12-18T11:11:50;8.17;;;4.30;;
12196;SDS011;6161;43.014;25.840;2022-12-18T11:14:24;6.57;;;4.73;;
12196;SDS011;6161;43.014;25.840;2022-12-18T11:16:50;5.80;;;3.87;;
12196;SDS011;6161;43.014;25.840;2022-12-18T11:21:50;5.37;;;4.07;;
12196;SDS011;6161;43.014;25.840;2022-12-18T11:24:31;4.77;;;4.00;;
12196;SDS011;6161;43.014;25.840;2022-12-18T11:27:06;5.63;;;4.03;;
12196;SDS011;6161;43.014;25.840;2022-12-18T11:29:40;6.40;;;4.53;;
12196;SDS011;6161;43.014;25.840;2022-12-18T11:34:45;5.03;;;4.03;;
12196;SDS011;6161;43.014;25.840;2022-12-18T11:37:11;6.37;;;3.70;;
12196;SDS011;6161;43.014;25.840;2022-12-18T11:47:42;9.70;;;7.23;;
12196;SDS011;6161;43.014;25.840;2022-12-18T11:50:19;9.13;;;7.43;;
12196;SDS011;6161;43.014;25.840;2022-12-18T11:52:47;7.17;;;5.83;;
12196;SDS011;6161;43.014;25.840;2022-12-18T11:55:18;7.30;;;4.93;;
12196;SDS011;6161;43.014;25.840;2022-12-18T11:57:49;8.97;;;4.27;;
12196;SDS011;6161;43.014;25.840;2022-12-18T12:00:19;7.43;;;5.30;;
12196;SDS011;6161;43.014;25.840;2022-12-18T12:07:54;6.00;;;4.37;;
12196;SDS011;6161;43.014;25.840;2022-12-18T12:10:32;7.20;;;4.77;;
12196;SDS011;6161;43.014;25.840;2022-12-18T12:15:29;8.47;;;4.37;;
12196;SDS011;6161;43.014;25.840;2022-12-18T12:20:59;6.30;;;4.07;;
12196;SDS011;6161;43.014;25.840;2022-12-18T12:31:21;7.70;;;5.40;;
12196;SDS011;6161;43.014;25.840;2022-12-18T12:33:56;8.93;;;5.23;;
12196;SDS011;6161;43.014;25.840;2022-12-18T12:38:57;5.80;;;4.07;;
12196;SDS011;6161;43.014;25.840;2022-12-18T12:41:26;8.10;;;4.53;;
12196;SDS011;6161;43.014;25.840;2022-12-18T12:44:20;8.10;;;5.47;;
12196;SDS011;6161;43.014;25.840;2022-12-18T12:46:48;8.20;;;5.00;;
12196;SDS011;6161;43.014;25.840;2022-12-18T12:49:15;7.00;;;4.83;;
12196;SDS011;6161;43.014;25.840;2022-12-18T12:51:43;6.83;;;4.73;;
12196;SDS011;6161;43.014;25.840;2022-12-18T12:54:14;6.40;;;4.30;;
12196;SDS011;6161;43.014;25.840;2022-12-18T13:06:44;5.23;;;4.33;;
